sensor_id;sensor_type;location;lat;lon;timestamp;P1;durP1;ratioP1;P2;durP2;ratioP2
56770;SDS011;42641;59.794;17.616;2024-03-08T00:00:38;5.17;;;2.30;;
56770;SDS011;42641;59.794;17.616;2024-03-08T00:03:06;6.43;;;2.60;;
56770;SDS011;42641;59.794;17.616;2024-03-08T00:05:32;3.53;;;2.03;;
56770;SDS011;42641;59.794;17.616;2024-03-08T00:07:59;4.73;;;2.50;;
56770;SDS011;42641;59.794;17.616;2024-03-08T00:10:25;5.73;;;2.30;;
56770;SDS011;42641;59.794;17.616;2024-03-08T00:12:54;3.40;;;2.37;;
56770;SDS011;42641;59.794;17.616;2024-03-08T00:15:20;6.40;;;2.23;;
56770;SDS011;42641;59.794;17.616;2024-03-08T00:17:48;4.77;;;2.17;;
56770;SDS011;42641;59.794;17.616;2024-03-08T00:20:15;4.63;;;2.23;;
56770;SDS011;42641;59.794;17.616;2024-03-08T00:22:44;2.87;;;2.23;;
56770;SDS011;42641;59.794;17.616;2024-03-08T00:25:10;2.97;;;2.10;;
56770;SDS011;42641;59.794;17.616;2024-03-08T00:27:37;3.50;;;2.00;;
56770;SDS011;42641;59.794;17.616;2024-03-08T00:30:04;3.43;;;1.90;;
56770;SDS011;42641;59.794;17.616;2024-03-08T00:32:31;5.07;;;2.13;;
56770;SDS011;42641;59.794;17.616;2024-03-08T00:34:57;6.83;;;2.23;;
56770;SDS011;42641;59.794;17.616;2024-03-08T00:37:24;8.00;;;2.30;;
56770;SDS011;42641;59.794;17.616;2024-03-08T00:39:51;2.47;;;1.83;;
56770;SDS011;42641;59.794;17.616;2024-03-08T00:42:18;2.63;;;1.90;;
56770;SDS011;42641;59.794;17.616;2024-03-08T00:44:45;3.17;;;2.17;;
56770;SDS011;42641;59.794;17.616;2024-03-08T00:47:12;4.27;;;2.23;;
56770;SDS011;42641;59.794;17.616;2024-03-08T00:49:40;2.47;;;2.00;;
56770;SDS011;42641;59.794;17.616;2024-03-08T00:52:07;2.57;;;1.90;;
56770;SDS011;42641;59.794;17.616;2024-03-08T00:54:34;4.40;;;1.83;;
56770;SDS011;42641;59.794;17.616;2024-03-08T00:57:04;3.13;;;1.80;;
56770;SDS011;42641;59.794;17.616;2024-03-08T00:59:32;2.20;;;1.87;;
56770;SDS011;42641;59.794;17.616;2024-03-08T01:01:58;4.00;;;2.00;;
56770;SDS011;42641;59.794;17.616;2024-03-08T01:04:28;2.47;;;2.00;;
56770;SDS011;42641;59.794;17.616;2024-03-08T01:06:55;2.70;;;2.17;;
56770;SDS011;42641;59.794;17.616;2024-03-08T01:09:25;2.57;;;2.00;;
56770;SDS011;42641;59.794;17.616;2024-03-08T01:11:55;4.50;;;1.90;;
56770;SDS011;42641;59.794;17.616;2024-03-08T01:14:23;2.10;;;1.80;;
56770;SDS011;42641;59.794;17.616;2024-03-08T01:16:51;7.07;;;1.90;;
56770;SDS011;42641;59.794;17.616;2024-03-08T01:19:17;3.80;;;1.90;;
56770;SDS011;42641;59.794;17.616;2024-03-08T01:21:44;3.27;;;2.10;;
56770;SDS011;42641;59.794;17.616;2024-03-08T01:24:11;3.13;;;2.17;;
56770;SDS011;42641;59.794;17.616;2024-03-08T01:26:39;2.50;;;1.70;;
56770;SDS011;42641;59.794;17.616;2024-03-08T01:29:05;5.00;;;2.10;;
56770;SDS011;42641;59.794;17.616;2024-03-08T01:31:32;2.57;;;1.80;;
56770;SDS011;42641;59.794;17.616;2024-03-08T01:33:59;2.60;;;1.93;;
56770;SDS011;42641;59.794;17.616;2024-03-08T01:36:26;2.10;;;1.90;;
56770;SDS011;42641;59.794;17.616;2024-03-08T01:38:52;3.23;;;1.90;;
56770;SDS011;42641;59.794;17.616;2024-03-08T01:41:19;2.30;;;2.10;;
56770;SDS011;42641;59.794;17.616;2024-03-08T01:43:45;5.63;;;2.03;;
56770;SDS011;42641;59.794;17.616;2024-03-08T01:46:12;2.27;;;1.90;;
56770;SDS011;42641;59.794;17.616;2024-03-08T01:48:48;2.20;;;1.80;;
56770;SDS011;42641;59.794;17.616;2024-03-08T01:51:20;2.37;;;1.83;;
56770;SDS011;42641;59.794;17.616;2024-03-08T01:53:47;3.77;;;2.77;;
56770;SDS011;42641;59.794;17.616;2024-03-08T01:56:14;2.20;;;1.67;;
56770;SDS011;42641;59.794;17.616;2024-03-08T01:58:41;4.47;;;2.03;;
56770;SDS011;42641;59.794;17.616;2024-03-08T02:01:12;3.23;;;1.90;;
56770;SDS011;42641;59.794;17.616;2024-03-08T02:03:43;4.87;;;2.30;;
56770;SDS011;42641;59.794;17.616;2024-03-08T02:06:13;2.30;;;2.07;;
56770;SDS011;42641;59.794;17.616;2024-03-08T02:08:43;3.63;;;2.63;;
56770;SDS011;42641;59.794;17.616;2024-03-08T02:11:10;2.53;;;2.20;;
56770;SDS011;42641;59.794;17.616;2024-03-08T02:13:38;3.10;;;1.93;;
56770;SDS011;42641;59.794;17.616;2024-03-08T02:16:05;2.57;;;2.00;;
56770;SDS011;42641;59.794;17.616;2024-03-08T02:18:34;4.83;;;2.27;;
56770;SDS011;42641;59.794;17.616;2024-03-08T02:21:01;3.20;;;2.40;;
56770;SDS011;42641;59.794;17.616;2024-03-08T02:23:28;2.93;;;2.30;;
56770;SDS011;42641;59.794;17.616;2024-03-08T02:25:56;7.13;;;2.47;;
56770;SDS011;42641;59.794;17.616;2024-03-08T02:28:23;6.50;;;2.20;;
56770;SDS011;42641;59.794;17.616;2024-03-08T02:30:51;3.07;;;1.83;;
56770;SDS011;42641;59.794;17.616;2024-03-08T02:33:23;4.03;;;2.07;;
56770;SDS011;42641;59.794;17.616;2024-03-08T02:35:51;5.43;;;2.27;;
56770;SDS011;42641;59.794;17.616;2024-03-08T02:38:18;2.30;;;2.10;;
56770;SDS011;42641;59.794;17.616;2024-03-08T02:40:46;2.40;;;1.70;;
56770;SDS011;42641;59.794;17.616;2024-03-08T02:43:15;4.00;;;2.00;;
56770;SDS011;42641;59.794;17.616;2024-03-08T02:45:44;1.47;;;1.37;;
56770;SDS011;42641;59.794;17.616;2024-03-08T02:48:11;2.13;;;1.87;;
56770;SDS011;42641;59.794;17.616;2024-03-08T02:50:38;3.23;;;2.30;;
56770;SDS011;42641;59.794;17.616;2024-03-08T02:53:06;2.57;;;1.93;;
56770;SDS011;42641;59.794;17.616;2024-03-08T02:55:36;4.27;;;2.13;;
56770;SDS011;42641;59.794;17.616;2024-03-08T02:58:06;4.17;;;2.23;;
56770;SDS011;42641;59.794;17.616;2024-03-08T03:00:39;5.57;;;1.90;;
56770;SDS011;42641;59.794;17.616;2024-03-08T03:03:07;3.87;;;1.90;;
56770;SDS011;42641;59.794;17.616;2024-03-08T03:05:33;6.53;;;2.30;;
56770;SDS011;42641;59.794;17.616;2024-03-08T03:08:00;6.07;;;2.27;;
56770;SDS011;42641;59.794;17.616;2024-03-08T03:10:26;3.67;;;2.50;;
56770;SDS011;42641;59.794;17.616;2024-03-08T03:12:53;3.20;;;1.80;;
56770;SDS011;42641;59.794;17.616;2024-03-08T03:15:19;3.30;;;2.00;;
56770;SDS011;42641;59.794;17.616;2024-03-08T03:17:47;2.40;;;2.10;;
56770;SDS011;42641;59.794;17.616;2024-03-08T03:20:14;5.53;;;2.60;;
56770;SDS011;42641;59.794;17.616;2024-03-08T03:22:49;5.77;;;2.50;;
56770;SDS011;42641;59.794;17.616;2024-03-08T03:25:19;3.93;;;2.20;;
56770;SDS011;42641;59.794;17.616;2024-03-08T03:27:54;3.10;;;2.07;;
56770;SDS011;42641;59.794;17.616;2024-03-08T03:30:23;3.80;;;2.40;;
56770;SDS011;42641;59.794;17.616;2024-03-08T03:32:52;5.30;;;2.60;;
56770;SDS011;42641;59.794;17.616;2024-03-08T03:35:21;4.37;;;2.40;;
56770;SDS011;42641;59.794;17.616;2024-03-08T03:37:48;3.87;;;2.57;;
56770;SDS011;42641;59.794;17.616;2024-03-08T03:40:31;2.93;;;1.90;;
56770;SDS011;42641;59.794;17.616;2024-03-08T03:43:05;3.33;;;2.40;;
56770;SDS011;42641;59.794;17.616;2024-03-08T03:45:31;3.80;;;2.60;;
56770;SDS011;42641;59.794;17.616;2024-03-08T03:48:02;5.20;;;2.70;;
56770;SDS011;42641;59.794;17.616;2024-03-08T03:50:29;3.27;;;2.40;;
56770;SDS011;42641;59.794;17.616;2024-03-08T03:52:55;3.10;;;2.50;;
56770;SDS011;42641;59.794;17.616;2024-03-08T03:55:22;4.37;;;2.20;;
56770;SDS011;42641;59.794;17.616;2024-03-08T03:57:48;3.73;;;2.30;;
56770;SDS011;42641;59.794;17.616;2024-03-08T04:00:14;3.70;;;2.60;;
56770;SDS011;42641;59.794;17.616;2024-03-08T04:02:41;2.90;;;2.13;;
56770;SDS011;42641;59.794;17.616;2024-03-08T04:05:08;3.47;;;2.20;;
56770;SDS011;42641;59.794;17.616;2024-03-08T04:07:36;3.90;;;2.67;;
56770;SDS011;42641;59.794;17.616;2024-03-08T04:10:03;6.43;;;2.50;;
56770;SDS011;42641;59.794;17.616;2024-03-08T04:12:34;3.43;;;2.20;;
56770;SDS011;42641;59.794;17.616;2024-03-08T04:15:04;3.13;;;2.30;;
56770;SDS011;42641;59.794;17.616;2024-03-08T04:17:34;4.93;;;2.47;;
56770;SDS011;42641;59.794;17.616;2024-03-08T04:20:03;4.60;;;2.47;;
56770;SDS011;42641;59.794;17.616;2024-03-08T04:22:36;3.70;;;2.30;;
56770;SDS011;42641;59.794;17.616;2024-03-08T04:25:03;2.60;;;2.10;;
56770;SDS011;42641;59.794;17.616;2024-03-08T04:27:29;3.23;;;2.50;;
56770;SDS011;42641;59.794;17.616;2024-03-08T04:29:56;2.57;;;2.20;;
56770;SDS011;42641;59.794;17.616;2024-03-08T04:32:22;3.67;;;2.57;;
56770;SDS011;42641;59.794;17.616;2024-03-08T04:34:49;4.60;;;2.40;;
56770;SDS011;42641;59.794;17.616;2024-03-08T04:37:15;3.43;;;2.40;;
56770;SDS011;42641;59.794;17.616;2024-03-08T04:39:46;3.00;;;2.43;;
56770;SDS011;42641;59.794;17.616;2024-03-08T04:42:14;3.13;;;2.40;;
56770;SDS011;42641;59.794;17.616;2024-03-08T04:44:41;4.83;;;2.70;;
56770;SDS011;42641;59.794;17.616;2024-03-08T04:47:08;3.43;;;2.30;;
56770;SDS011;42641;59.794;17.616;2024-03-08T04:49:34;3.23;;;2.30;;
56770;SDS011;42641;59.794;17.616;2024-03-08T04:52:01;3.33;;;2.53;;
56770;SDS011;42641;59.794;17.616;2024-03-08T04:54:29;3.70;;;2.40;;
56770;SDS011;42641;59.794;17.616;2024-03-08T04:56:58;6.13;;;3.37;;
56770;SDS011;42641;59.794;17.616;2024-03-08T04:59:27;4.83;;;2.47;;
56770;SDS011;42641;59.794;17.616;2024-03-08T05:01:54;3.80;;;2.70;;
56770;SDS011;42641;59.794;17.616;2024-03-08T05:04:20;3.10;;;2.40;;
56770;SDS011;42641;59.794;17.616;2024-03-08T05:06:47;3.50;;;2.50;;
56770;SDS011;42641;59.794;17.616;2024-03-08T05:09:14;5.17;;;2.50;;
56770;SDS011;42641;59.794;17.616;2024-03-08T05:11:45;3.40;;;2.60;;
56770;SDS011;42641;59.794;17.616;2024-03-08T05:14:13;4.33;;;2.10;;
56770;SDS011;42641;59.794;17.616;2024-03-08T05:16:44;4.53;;;2.87;;
56770;SDS011;42641;59.794;17.616;2024-03-08T05:19:14;3.37;;;2.60;;
56770;SDS011;42641;59.794;17.616;2024-03-08T05:21:44;4.27;;;3.17;;
56770;SDS011;42641;59.794;17.616;2024-03-08T05:24:14;6.57;;;3.87;;
56770;SDS011;42641;59.794;17.616;2024-03-08T05:26:44;4.23;;;2.70;;
56770;SDS011;42641;59.794;17.616;2024-03-08T05:29:11;4.70;;;3.23;;
56770;SDS011;42641;59.794;17.616;2024-03-08T05:31:41;3.97;;;2.80;;
56770;SDS011;42641;59.794;17.616;2024-03-08T05:34:14;5.23;;;3.10;;
56770;SDS011;42641;59.794;17.616;2024-03-08T05:36:41;4.53;;;3.10;;
56770;SDS011;42641;59.794;17.616;2024-03-08T05:39:12;3.70;;;2.70;;
56770;SDS011;42641;59.794;17.616;2024-03-08T05:41:40;5.70;;;2.73;;
56770;SDS011;42641;59.794;17.616;2024-03-08T05:44:06;6.00;;;3.63;;
56770;SDS011;42641;59.794;17.616;2024-03-08T05:46:33;4.80;;;2.80;;
56770;SDS011;42641;59.794;17.616;2024-03-08T05:49:01;7.63;;;3.10;;
56770;SDS011;42641;59.794;17.616;2024-03-08T05:51:32;5.63;;;2.80;;
56770;SDS011;42641;59.794;17.616;2024-03-08T05:54:02;4.97;;;2.97;;
56770;SDS011;42641;59.794;17.616;2024-03-08T05:56:32;4.57;;;3.10;;
56770;SDS011;42641;59.794;17.616;2024-03-08T05:58:59;3.77;;;2.50;;
56770;SDS011;42641;59.794;17.616;2024-03-08T06:01:26;5.23;;;2.90;;
56770;SDS011;42641;59.794;17.616;2024-03-08T06:03:53;3.57;;;3.17;;
56770;SDS011;42641;59.794;17.616;2024-03-08T06:06:22;4.23;;;2.80;;
56770;SDS011;42641;59.794;17.616;2024-03-08T06:08:49;5.40;;;3.10;;
56770;SDS011;42641;59.794;17.616;2024-03-08T06:11:17;6.00;;;3.00;;
56770;SDS011;42641;59.794;17.616;2024-03-08T06:13:44;4.67;;;2.83;;
56770;SDS011;42641;59.794;17.616;2024-03-08T06:16:11;3.80;;;2.80;;
56770;SDS011;42641;59.794;17.616;2024-03-08T06:18:38;4.53;;;3.13;;
56770;SDS011;42641;59.794;17.616;2024-03-08T06:21:07;4.27;;;2.90;;
56770;SDS011;42641;59.794;17.616;2024-03-08T06:23:37;4.60;;;3.40;;
56770;SDS011;42641;59.794;17.616;2024-03-08T06:26:04;4.03;;;3.00;;
56770;SDS011;42641;59.794;17.616;2024-03-08T06:28:31;7.73;;;3.70;;
56770;SDS011;42641;59.794;17.616;2024-03-08T06:31:00;6.30;;;3.27;;
56770;SDS011;42641;59.794;17.616;2024-03-08T06:33:28;7.87;;;3.60;;
56770;SDS011;42641;59.794;17.616;2024-03-08T06:35:55;6.23;;;3.70;;
56770;SDS011;42641;59.794;17.616;2024-03-08T06:38:26;13.10;;;3.80;;
56770;SDS011;42641;59.794;17.616;2024-03-08T06:40:52;8.23;;;4.17;;
56770;SDS011;42641;59.794;17.616;2024-03-08T06:43:20;13.63;;;4.67;;
56770;SDS011;42641;59.794;17.616;2024-03-08T06:45:46;9.90;;;3.83;;
56770;SDS011;42641;59.794;17.616;2024-03-08T06:48:19;8.27;;;3.73;;
56770;SDS011;42641;59.794;17.616;2024-03-08T06:50:46;5.10;;;3.50;;
56770;SDS011;42641;59.794;17.616;2024-03-08T06:53:13;7.60;;;3.80;;
56770;SDS011;42641;59.794;17.616;2024-03-08T06:55:39;6.43;;;3.67;;
56770;SDS011;42641;59.794;17.616;2024-03-08T06:58:06;8.27;;;4.10;;
56770;SDS011;42641;59.794;17.616;2024-03-08T07:00:33;9.43;;;4.27;;
56770;SDS011;42641;59.794;17.616;2024-03-08T07:02:59;9.70;;;4.03;;
56770;SDS011;42641;59.794;17.616;2024-03-08T07:05:28;5.10;;;3.40;;
56770;SDS011;42641;59.794;17.616;2024-03-08T07:07:55;5.17;;;3.53;;
56770;SDS011;42641;59.794;17.616;2024-03-08T07:10:22;7.13;;;3.70;;
56770;SDS011;42641;59.794;17.616;2024-03-08T07:12:51;10.37;;;3.83;;
56770;SDS011;42641;59.794;17.616;2024-03-08T07:15:19;6.77;;;3.70;;
56770;SDS011;42641;59.794;17.616;2024-03-08T07:17:46;7.43;;;4.20;;
56770;SDS011;42641;59.794;17.616;2024-03-08T07:20:15;4.67;;;3.40;;
56770;SDS011;42641;59.794;17.616;2024-03-08T07:22:44;6.60;;;3.40;;
56770;SDS011;42641;59.794;17.616;2024-03-08T07:25:17;5.77;;;3.33;;
56770;SDS011;42641;59.794;17.616;2024-03-08T07:30:14;6.23;;;3.33;;
56770;SDS011;42641;59.794;17.616;2024-03-08T07:32:59;7.50;;;3.90;;
56770;SDS011;42641;59.794;17.616;2024-03-08T07:35:28;6.33;;;3.53;;
56770;SDS011;42641;59.794;17.616;2024-03-08T07:37:54;8.13;;;2.80;;
56770;SDS011;42641;59.794;17.616;2024-03-08T07:40:21;8.00;;;3.57;;
56770;SDS011;42641;59.794;17.616;2024-03-08T07:42:49;7.23;;;3.47;;
56770;SDS011;42641;59.794;17.616;2024-03-08T07:45:16;8.63;;;4.20;;
56770;SDS011;42641;59.794;17.616;2024-03-08T07:47:43;6.40;;;3.30;;
56770;SDS011;42641;59.794;17.616;2024-03-08T07:50:09;5.30;;;3.30;;
56770;SDS011;42641;59.794;17.616;2024-03-08T07:52:36;4.27;;;3.43;;
56770;SDS011;42641;59.794;17.616;2024-03-08T07:55:04;6.50;;;3.43;;
56770;SDS011;42641;59.794;17.616;2024-03-08T07:57:31;4.70;;;3.43;;
56770;SDS011;42641;59.794;17.616;2024-03-08T08:00:00;6.90;;;3.30;;
56770;SDS011;42641;59.794;17.616;2024-03-08T08:02:26;8.63;;;3.17;;
56770;SDS011;42641;59.794;17.616;2024-03-08T08:04:53;4.97;;;3.30;;
56770;SDS011;42641;59.794;17.616;2024-03-08T08:07:20;5.50;;;3.10;;
56770;SDS011;42641;59.794;17.616;2024-03-08T08:09:47;6.63;;;3.67;;
56770;SDS011;42641;59.794;17.616;2024-03-08T08:12:14;5.53;;;3.03;;
56770;SDS011;42641;59.794;17.616;2024-03-08T08:14:42;10.80;;;3.60;;
56770;SDS011;42641;59.794;17.616;2024-03-08T08:17:08;6.20;;;3.27;;
56770;SDS011;42641;59.794;17.616;2024-03-08T08:19:34;6.50;;;2.73;;
56770;SDS011;42641;59.794;17.616;2024-03-08T08:22:01;4.23;;;2.97;;
56770;SDS011;42641;59.794;17.616;2024-03-08T08:24:28;4.97;;;3.13;;
56770;SDS011;42641;59.794;17.616;2024-03-08T08:26:55;5.07;;;3.30;;
56770;SDS011;42641;59.794;17.616;2024-03-08T08:29:22;5.00;;;2.77;;
56770;SDS011;42641;59.794;17.616;2024-03-08T08:31:48;10.57;;;3.63;;
56770;SDS011;42641;59.794;17.616;2024-03-08T08:34:16;3.63;;;2.90;;
56770;SDS011;42641;59.794;17.616;2024-03-08T08:36:45;4.93;;;3.00;;
56770;SDS011;42641;59.794;17.616;2024-03-08T08:39:11;4.33;;;2.87;;
56770;SDS011;42641;59.794;17.616;2024-03-08T08:41:42;4.30;;;2.80;;
56770;SDS011;42641;59.794;17.616;2024-03-08T08:44:08;4.93;;;2.80;;
56770;SDS011;42641;59.794;17.616;2024-03-08T08:46:36;4.70;;;2.63;;
56770;SDS011;42641;59.794;17.616;2024-03-08T08:49:06;5.53;;;3.03;;
56770;SDS011;42641;59.794;17.616;2024-03-08T08:51:36;3.10;;;2.60;;
56770;SDS011;42641;59.794;17.616;2024-03-08T08:54:03;5.87;;;2.87;;
56770;SDS011;42641;59.794;17.616;2024-03-08T08:56:29;3.67;;;2.47;;
56770;SDS011;42641;59.794;17.616;2024-03-08T08:58:56;3.93;;;2.47;;
56770;SDS011;42641;59.794;17.616;2024-03-08T09:01:23;5.33;;;2.40;;
56770;SDS011;42641;59.794;17.616;2024-03-08T09:03:49;3.30;;;2.20;;
56770;SDS011;42641;59.794;17.616;2024-03-08T09:06:16;4.90;;;2.33;;
56770;SDS011;42641;59.794;17.616;2024-03-08T09:08:44;4.97;;;2.60;;
56770;SDS011;42641;59.794;17.616;2024-03-08T09:11:11;3.93;;;2.43;;
56770;SDS011;42641;59.794;17.616;2024-03-08T09:13:38;3.50;;;2.13;;
56770;SDS011;42641;59.794;17.616;2024-03-08T09:16:04;4.00;;;2.20;;
56770;SDS011;42641;59.794;17.616;2024-03-08T09:18:32;3.40;;;2.80;;
56770;SDS011;42641;59.794;17.616;2024-03-08T09:20:59;4.20;;;2.20;;
56770;SDS011;42641;59.794;17.616;2024-03-08T09:23:27;4.90;;;2.60;;
56770;SDS011;42641;59.794;17.616;2024-03-08T09:25:56;4.73;;;2.70;;
56770;SDS011;42641;59.794;17.616;2024-03-08T09:28:23;3.70;;;2.77;;
56770;SDS011;42641;59.794;17.616;2024-03-08T09:30:50;2.80;;;2.37;;
56770;SDS011;42641;59.794;17.616;2024-03-08T09:33:17;5.93;;;2.60;;
56770;SDS011;42641;59.794;17.616;2024-03-08T09:35:45;5.20;;;2.13;;
56770;SDS011;42641;59.794;17.616;2024-03-08T09:38:12;6.23;;;2.30;;
56770;SDS011;42641;59.794;17.616;2024-03-08T09:40:42;3.80;;;2.63;;
56770;SDS011;42641;59.794;17.616;2024-03-08T09:43:12;3.63;;;2.40;;
56770;SDS011;42641;59.794;17.616;2024-03-08T09:45:38;5.73;;;2.60;;
56770;SDS011;42641;59.794;17.616;2024-03-08T09:48:10;4.07;;;2.17;;
56770;SDS011;42641;59.794;17.616;2024-03-08T09:50:40;3.70;;;2.33;;
56770;SDS011;42641;59.794;17.616;2024-03-08T09:53:09;8.70;;;2.67;;
56770;SDS011;42641;59.794;17.616;2024-03-08T09:55:38;3.30;;;2.30;;
56770;SDS011;42641;59.794;17.616;2024-03-08T09:58:08;6.87;;;2.30;;
56770;SDS011;42641;59.794;17.616;2024-03-08T10:01:02;3.43;;;2.10;;
56770;SDS011;42641;59.794;17.616;2024-03-08T10:03:30;4.87;;;2.20;;
56770;SDS011;42641;59.794;17.616;2024-03-08T10:06:00;3.03;;;2.10;;
56770;SDS011;42641;59.794;17.616;2024-03-08T10:08:29;5.13;;;2.30;;
56770;SDS011;42641;59.794;17.616;2024-03-08T10:10:56;2.70;;;2.00;;
56770;SDS011;42641;59.794;17.616;2024-03-08T10:13:25;3.13;;;2.10;;
56770;SDS011;42641;59.794;17.616;2024-03-08T10:15:56;2.83;;;2.57;;
56770;SDS011;42641;59.794;17.616;2024-03-08T10:18:22;5.73;;;2.30;;
56770;SDS011;42641;59.794;17.616;2024-03-08T10:21:05;10.17;;;2.30;;
56770;SDS011;42641;59.794;17.616;2024-03-08T10:23:33;3.80;;;1.97;;
56770;SDS011;42641;59.794;17.616;2024-03-08T10:26:12;2.97;;;2.10;;
56770;SDS011;42641;59.794;17.616;2024-03-08T10:28:50;3.97;;;2.20;;
56770;SDS011;42641;59.794;17.616;2024-03-08T10:31:18;6.47;;;2.50;;
56770;SDS011;42641;59.794;17.616;2024-03-08T10:33:47;8.00;;;2.20;;
56770;SDS011;42641;59.794;17.616;2024-03-08T10:36:15;5.70;;;2.27;;
56770;SDS011;42641;59.794;17.616;2024-03-08T10:38:42;4.23;;;2.30;;
56770;SDS011;42641;59.794;17.616;2024-03-08T10:41:12;2.67;;;2.20;;
56770;SDS011;42641;59.794;17.616;2024-03-08T10:43:52;3.50;;;2.00;;
56770;SDS011;42641;59.794;17.616;2024-03-08T10:47:03;2.83;;;1.73;;
56770;SDS011;42641;59.794;17.616;2024-03-08T10:49:55;3.77;;;2.33;;
56770;SDS011;42641;59.794;17.616;2024-03-08T10:52:34;4.57;;;1.97;;
56770;SDS011;42641;59.794;17.616;2024-03-08T10:55:02;5.57;;;1.90;;
56770;SDS011;42641;59.794;17.616;2024-03-08T10:57:34;5.27;;;2.27;;
56770;SDS011;42641;59.794;17.616;2024-03-08T11:00:03;3.07;;;2.10;;
56770;SDS011;42641;59.794;17.616;2024-03-08T11:02:35;3.30;;;2.23;;
56770;SDS011;42641;59.794;17.616;2024-03-08T11:05:03;2.50;;;2.00;;
56770;SDS011;42641;59.794;17.616;2024-03-08T11:07:34;3.00;;;2.00;;
56770;SDS011;42641;59.794;17.616;2024-03-08T11:10:04;4.17;;;2.17;;
56770;SDS011;42641;59.794;17.616;2024-03-08T11:12:36;4.30;;;2.23;;
56770;SDS011;42641;59.794;17.616;2024-03-08T11:15:09;3.33;;;2.40;;
56770;SDS011;42641;59.794;17.616;2024-03-08T11:20:11;3.47;;;1.90;;
56770;SDS011;42641;59.794;17.616;2024-03-08T11:22:42;3.67;;;1.93;;
56770;SDS011;42641;59.794;17.616;2024-03-08T11:31:31;3.23;;;1.90;;
56770;SDS011;42641;59.794;17.616;2024-03-08T11:33:35;2.90;;;2.13;;
56770;SDS011;42641;59.794;17.616;2024-03-08T11:36:11;3.87;;;2.03;;
56770;SDS011;42641;59.794;17.616;2024-03-08T11:38:42;2.67;;;2.27;;
56770;SDS011;42641;59.794;17.616;2024-03-08T11:41:09;9.30;;;2.37;;
56770;SDS011;42641;59.794;17.616;2024-03-08T11:43:40;4.40;;;1.90;;
56770;SDS011;42641;59.794;17.616;2024-03-08T11:46:10;3.37;;;2.03;;
56770;SDS011;42641;59.794;17.616;2024-03-08T11:48:40;4.23;;;2.07;;
56770;SDS011;42641;59.794;17.616;2024-03-08T11:51:08;4.97;;;1.90;;
56770;SDS011;42641;59.794;17.616;2024-03-08T11:53:40;3.03;;;1.70;;
56770;SDS011;42641;59.794;17.616;2024-03-08T11:56:08;4.70;;;2.23;;
56770;SDS011;42641;59.794;17.616;2024-03-08T11:58:35;3.50;;;2.10;;
56770;SDS011;42641;59.794;17.616;2024-03-08T12:01:04;4.03;;;2.13;;
56770;SDS011;42641;59.794;17.616;2024-03-08T12:03:33;4.27;;;1.83;;
56770;SDS011;42641;59.794;17.616;2024-03-08T12:06:04;3.53;;;1.90;;
56770;SDS011;42641;59.794;17.616;2024-03-08T12:08:30;5.07;;;2.10;;
56770;SDS011;42641;59.794;17.616;2024-03-08T12:10:58;4.67;;;2.40;;
56770;SDS011;42641;59.794;17.616;2024-03-08T12:13:27;4.23;;;2.03;;
56770;SDS011;42641;59.794;17.616;2024-03-08T12:15:56;4.50;;;2.17;;
56770;SDS011;42641;59.794;17.616;2024-03-08T12:18:24;5.30;;;2.33;;
56770;SDS011;42641;59.794;17.616;2024-03-08T12:20:54;5.60;;;2.17;;
56770;SDS011;42641;59.794;17.616;2024-03-08T12:23:34;3.07;;;1.90;;
56770;SDS011;42641;59.794;17.616;2024-03-08T12:28:44;6.40;;;1.87;;
56770;SDS011;42641;59.794;17.616;2024-03-08T12:31:11;3.67;;;1.80;;
56770;SDS011;42641;59.794;17.616;2024-03-08T12:36:22;3.83;;;2.10;;
56770;SDS011;42641;59.794;17.616;2024-03-08T12:38:48;2.30;;;2.03;;
56770;SDS011;42641;59.794;17.616;2024-03-08T12:41:18;2.93;;;2.10;;
56770;SDS011;42641;59.794;17.616;2024-03-08T12:43:46;2.77;;;2.00;;
56770;SDS011;42641;59.794;17.616;2024-03-08T12:46:19;4.27;;;2.20;;
56770;SDS011;42641;59.794;17.616;2024-03-08T12:48:47;2.70;;;1.77;;
56770;SDS011;42641;59.794;17.616;2024-03-08T12:51:14;4.73;;;2.30;;
56770;SDS011;42641;59.794;17.616;2024-03-08T12:53:42;2.37;;;1.87;;
56770;SDS011;42641;59.794;17.616;2024-03-08T12:56:21;4.70;;;2.30;;
56770;SDS011;42641;59.794;17.616;2024-03-08T12:58:55;3.50;;;2.60;;
56770;SDS011;42641;59.794;17.616;2024-03-08T13:01:22;3.93;;;2.37;;
56770;SDS011;42641;59.794;17.616;2024-03-08T13:03:48;2.97;;;2.10;;
56770;SDS011;42641;59.794;17.616;2024-03-08T13:06:19;11.73;;;2.37;;
56770;SDS011;42641;59.794;17.616;2024-03-08T13:08:47;7.93;;;2.10;;
56770;SDS011;42641;59.794;17.616;2024-03-08T13:11:14;4.00;;;2.10;;
56770;SDS011;42641;59.794;17.616;2024-03-08T13:13:40;4.90;;;2.20;;
56770;SDS011;42641;59.794;17.616;2024-03-08T13:16:07;3.97;;;2.03;;
56770;SDS011;42641;59.794;17.616;2024-03-08T13:18:34;2.13;;;1.93;;
56770;SDS011;42641;59.794;17.616;2024-03-08T13:21:04;4.57;;;2.03;;
56770;SDS011;42641;59.794;17.616;2024-03-08T13:23:33;5.90;;;2.37;;
56770;SDS011;42641;59.794;17.616;2024-03-08T13:26:08;4.67;;;2.17;;
56770;SDS011;42641;59.794;17.616;2024-03-08T13:28:37;5.47;;;2.43;;
56770;SDS011;42641;59.794;17.616;2024-03-08T13:31:05;3.00;;;1.93;;
56770;SDS011;42641;59.794;17.616;2024-03-08T13:33:36;2.47;;;2.27;;
56770;SDS011;42641;59.794;17.616;2024-03-08T13:36:11;2.40;;;2.20;;
56770;SDS011;42641;59.794;17.616;2024-03-08T13:38:44;6.30;;;2.30;;
56770;SDS011;42641;59.794;17.616;2024-03-08T13:41:13;2.90;;;1.93;;
56770;SDS011;42641;59.794;17.616;2024-03-08T13:43:42;4.20;;;1.83;;
56770;SDS011;42641;59.794;17.616;2024-03-08T13:46:11;2.10;;;1.90;;
56770;SDS011;42641;59.794;17.616;2024-03-08T13:48:38;1.70;;;1.60;;
56770;SDS011;42641;59.794;17.616;2024-03-08T13:51:04;4.60;;;1.93;;
56770;SDS011;42641;59.794;17.616;2024-03-08T13:53:36;1.63;;;1.53;;
56770;SDS011;42641;59.794;17.616;2024-03-08T13:56:02;3.33;;;2.20;;
56770;SDS011;42641;59.794;17.616;2024-03-08T13:58:29;2.93;;;1.63;;
56770;SDS011;42641;59.794;17.616;2024-03-08T14:00:55;2.67;;;1.80;;
56770;SDS011;42641;59.794;17.616;2024-03-08T14:03:22;2.07;;;1.67;;
56770;SDS011;42641;59.794;17.616;2024-03-08T14:05:50;3.47;;;1.60;;
56770;SDS011;42641;59.794;17.616;2024-03-08T14:08:16;2.33;;;1.60;;
56770;SDS011;42641;59.794;17.616;2024-03-08T14:10:43;4.40;;;1.63;;
56770;SDS011;42641;59.794;17.616;2024-03-08T14:13:12;1.70;;;1.60;;
56770;SDS011;42641;59.794;17.616;2024-03-08T14:15:41;3.67;;;1.60;;
56770;SDS011;42641;59.794;17.616;2024-03-08T14:18:08;2.63;;;1.37;;
56770;SDS011;42641;59.794;17.616;2024-03-08T14:20:34;3.03;;;1.43;;
56770;SDS011;42641;59.794;17.616;2024-03-08T14:23:00;2.73;;;1.37;;
56770;SDS011;42641;59.794;17.616;2024-03-08T14:25:27;3.83;;;1.50;;
56770;SDS011;42641;59.794;17.616;2024-03-08T14:27:55;1.13;;;1.10;;
56770;SDS011;42641;59.794;17.616;2024-03-08T14:30:28;1.93;;;1.47;;
56770;SDS011;42641;59.794;17.616;2024-03-08T14:33:01;2.80;;;1.20;;
56770;SDS011;42641;59.794;17.616;2024-03-08T14:35:28;1.40;;;1.30;;
56770;SDS011;42641;59.794;17.616;2024-03-08T14:37:55;3.23;;;1.40;;
56770;SDS011;42641;59.794;17.616;2024-03-08T14:40:26;1.60;;;1.33;;
56770;SDS011;42641;59.794;17.616;2024-03-08T14:42:52;1.50;;;1.40;;
56770;SDS011;42641;59.794;17.616;2024-03-08T14:45:19;2.70;;;1.50;;
56770;SDS011;42641;59.794;17.616;2024-03-08T14:47:46;1.90;;;1.10;;
56770;SDS011;42641;59.794;17.616;2024-03-08T14:50:19;3.10;;;1.30;;
56770;SDS011;42641;59.794;17.616;2024-03-08T14:52:48;2.50;;;1.37;;
56770;SDS011;42641;59.794;17.616;2024-03-08T14:55:15;1.60;;;1.50;;
56770;SDS011;42641;59.794;17.616;2024-03-08T14:57:48;3.93;;;1.50;;